createdAt,value
2023-01-12T00:01:06.736Z,5.07
2023-01-12T00:03:33.320Z,6.70
2023-01-12T00:06:08.109Z,6.20
2023-01-12T00:08:35.257Z,5.50
2023-01-12T00:11:02.156Z,6.33
2023-01-12T00:13:31.390Z,5.30
2023-01-12T00:16:16.905Z,6.30
2023-01-12T00:18:43.650Z,3.97
2023-01-12T00:21:10.159Z,5.33
2023-01-12T00:23:36.808Z,5.80
2023-01-12T00:26:03.651Z,7.93
2023-01-12T00:28:30.153Z,7.87
2023-01-12T00:31:00.441Z,6.17
2023-01-12T00:33:26.981Z,4.70
2023-01-12T00:35:53.546Z,9.53
2023-01-12T00:38:20.189Z,4.80
2023-01-12T00:40:46.740Z,6.87
2023-01-12T00:43:32.000Z,8.70
2023-01-12T00:45:58.566Z,7.40
2023-01-12T00:48:25.126Z,7.17
2023-01-12T00:50:51.651Z,7.07
2023-01-12T00:53:18.368Z,5.67
2023-01-12T00:55:46.208Z,5.53
2023-01-12T00:58:12.733Z,5.80
2023-01-12T01:00:39.280Z,7.17
2023-01-12T01:03:05.866Z,6.50
2023-01-12T01:05:32.465Z,5.17
2023-01-12T01:07:59.091Z,7.30
2023-01-12T01:10:25.576Z,6.07
2023-01-12T01:12:52.112Z,7.70
2023-01-12T01:15:19.151Z,5.87
2023-01-12T01:17:45.702Z,4.93
2023-01-12T01:20:12.600Z,8.80
2023-01-12T01:22:39.079Z,8.13
2023-01-12T01:25:05.901Z,7.97
2023-01-12T01:27:32.493Z,5.67
2023-01-12T01:29:59.047Z,7.00
2023-01-12T01:32:25.533Z,7.17
2023-01-12T01:34:52.037Z,6.10
2023-01-12T01:37:18.551Z,8.63
2023-01-12T01:39:45.095Z,8.03
2023-01-12T01:42:28.132Z,7.30
2023-01-12T01:44:55.634Z,9.00
2023-01-12T01:47:24.166Z,11.07
2023-01-12T01:49:51.412Z,7.57
2023-01-12T01:52:22.452Z,9.73
2023-01-12T01:54:55.046Z,9.20
2023-01-12T01:57:23.237Z,7.60
2023-01-12T01:59:50.987Z,9.30
2023-01-12T02:02:17.532Z,9.47
2023-01-12T02:04:44.116Z,10.90
2023-01-12T02:07:10.669Z,7.73
2023-01-12T02:09:37.196Z,12.33
2023-01-12T02:12:22.444Z,8.67
2023-01-12T02:15:07.687Z,7.47
2023-01-12T02:17:53.875Z,6.97
2023-01-12T02:20:35.598Z,6.97
2023-01-12T02:23:05.080Z,9.17
2023-01-12T02:25:31.523Z,8.50
2023-01-12T02:28:27.467Z,6.77
2023-01-12T02:31:06.511Z,9.03
2023-01-12T02:33:33.112Z,6.33
2023-01-12T02:36:02.690Z,9.30
2023-01-12T02:38:35.165Z,5.93
2023-01-12T02:41:04.416Z,6.13
2023-01-12T02:43:31.017Z,5.73
2023-01-12T02:46:11.646Z,5.47
2023-01-12T02:48:39.046Z,5.17
2023-01-12T02:51:06.852Z,6.53
2023-01-12T02:53:34.810Z,5.63
2023-01-12T02:56:03.068Z,5.13
2023-01-12T02:58:29.623Z,6.33
2023-01-12T03:00:56.859Z,4.33
2023-01-12T03:03:23.492Z,5.07
2023-01-12T03:05:51.817Z,5.00
2023-01-12T03:08:18.808Z,6.30
2023-01-12T03:10:48.146Z,6.00
2023-01-12T03:13:15.340Z,5.23
2023-01-12T03:15:42.673Z,6.53
2023-01-12T03:18:18.200Z,5.87
2023-01-12T03:20:52.331Z,5.03
2023-01-12T03:23:20.979Z,5.30
2023-01-12T03:25:47.437Z,8.00
2023-01-12T03:28:14.655Z,7.27
2023-01-12T03:30:44.925Z,6.63
2023-01-12T03:33:11.472Z,8.20
2023-01-12T03:35:47.381Z,8.13
2023-01-12T03:38:34.125Z,9.30
2023-01-12T03:41:03.459Z,11.30
2023-01-12T03:43:35.203Z,10.87
2023-01-12T03:46:02.940Z,11.63
2023-01-12T03:48:39.015Z,10.43
2023-01-12T03:51:06.635Z,12.67
2023-01-12T03:53:33.134Z,14.10
2023-01-12T03:56:03.909Z,15.10
2023-01-12T03:58:30.406Z,12.27
2023-01-12T04:00:56.997Z,12.23
2023-01-12T04:03:24.709Z,13.60
2023-01-12T04:05:51.305Z,12.03
2023-01-12T04:08:17.885Z,12.03
2023-01-12T04:10:44.372Z,13.60
2023-01-12T04:13:10.867Z,12.00
2023-01-12T04:15:42.346Z,10.90
2023-01-12T04:18:09.757Z,15.20
2023-01-12T04:20:36.391Z,13.90
2023-01-12T04:23:02.860Z,15.90
2023-01-12T04:25:29.412Z,15.07
2023-01-12T04:27:57.149Z,16.17
2023-01-12T04:30:27.171Z,15.70
2023-01-12T04:32:53.829Z,20.50
2023-01-12T04:35:20.337Z,16.33
2023-01-12T04:37:46.856Z,13.97
2023-01-12T04:40:13.902Z,20.03
2023-01-12T04:43:06.978Z,18.13
2023-01-12T04:45:34.863Z,18.13
2023-01-12T04:48:02.902Z,19.60
2023-01-12T04:50:29.489Z,20.53
2023-01-12T04:52:56.006Z,19.10
2023-01-12T04:55:22.623Z,20.37
2023-01-12T04:57:49.115Z,18.13
2023-01-12T05:00:15.722Z,19.47
2023-01-12T05:02:42.224Z,21.00
2023-01-12T05:05:09.239Z,22.87
2023-01-12T05:07:35.801Z,22.53
2023-01-12T05:10:21.089Z,20.60
2023-01-12T05:12:47.621Z,16.93
2023-01-12T05:15:14.225Z,19.60
2023-01-12T05:17:41.019Z,20.17
2023-01-12T05:20:08.891Z,17.20
2023-01-12T05:22:35.531Z,20.30
2023-01-12T05:25:02.074Z,17.07
2023-01-12T05:27:28.598Z,17.87
2023-01-12T05:29:57.359Z,20.73
2023-01-12T05:32:23.923Z,22.80
2023-01-12T05:34:50.462Z,23.07
2023-01-12T05:37:17.008Z,27.50
2023-01-12T05:39:43.545Z,28.70
2023-01-12T05:42:28.658Z,35.33
2023-01-12T05:44:55.182Z,32.97
2023-01-12T05:47:21.659Z,37.67
2023-01-12T05:49:48.189Z,36.43
2023-01-12T05:52:14.663Z,34.87
2023-01-12T05:54:41.496Z,34.73
2023-01-12T05:57:08.050Z,33.83
2023-01-12T05:59:34.548Z,35.47
2023-01-12T06:02:01.078Z,29.70
2023-01-12T06:04:27.655Z,28.63
2023-01-12T06:06:54.147Z,29.50
2023-01-12T06:09:20.691Z,27.67
2023-01-12T06:12:05.798Z,27.37
2023-01-12T06:14:32.501Z,28.13
2023-01-12T06:16:59.130Z,30.10
2023-01-12T06:19:25.640Z,36.00
2023-01-12T06:21:52.686Z,34.00
2023-01-12T06:24:19.240Z,31.20
2023-01-12T06:26:46.397Z,31.27
2023-01-12T06:29:13.764Z,31.67
2023-01-12T06:31:40.382Z,30.27
2023-01-12T06:34:09.880Z,29.80
2023-01-12T06:36:36.427Z,32.13
2023-01-12T06:39:03.051Z,29.40
2023-01-12T06:41:48.386Z,29.50
2023-01-12T06:44:14.905Z,26.83
2023-01-12T06:46:41.474Z,26.57
2023-01-12T06:49:07.968Z,25.80
2023-01-12T06:51:34.552Z,24.87
2023-01-12T06:54:01.563Z,28.10
2023-01-12T06:56:28.145Z,27.73
2023-01-12T06:58:54.693Z,29.03
2023-01-12T07:01:21.367Z,27.00
2023-01-12T07:03:48.041Z,26.77
2023-01-12T07:06:14.599Z,27.80
2023-01-12T07:08:41.109Z,22.47
2023-01-12T07:11:12.866Z,26.50
2023-01-12T07:13:39.390Z,27.03
2023-01-12T07:16:06.289Z,25.23
2023-01-12T07:18:32.971Z,26.73
2023-01-12T07:20:59.478Z,26.57
2023-01-12T07:23:25.991Z,25.57
2023-01-12T07:25:52.474Z,23.63
2023-01-12T07:28:18.999Z,26.70
2023-01-12T07:30:45.527Z,26.50
2023-01-12T07:33:12.750Z,30.67
2023-01-12T07:35:39.594Z,25.07
2023-01-12T07:38:06.425Z,28.73
2023-01-12T07:40:33.107Z,31.13
2023-01-12T07:43:03.588Z,33.87
2023-01-12T07:45:30.246Z,26.43
2023-01-12T07:47:56.911Z,30.47
2023-01-12T07:50:23.873Z,29.83
2023-01-12T07:52:50.450Z,28.67
2023-01-12T07:55:19.110Z,30.80
2023-01-12T07:57:55.398Z,32.83
2023-01-12T08:00:23.464Z,30.03
2023-01-12T08:02:53.987Z,28.20
2023-01-12T08:05:20.729Z,30.87
2023-01-12T08:07:47.263Z,30.40
2023-01-12T08:10:13.957Z,30.40
2023-01-12T08:12:40.757Z,29.03
2023-01-12T08:15:08.397Z,31.07
2023-01-12T08:17:35.587Z,32.90
2023-01-12T08:20:03.713Z,35.80
2023-01-12T08:22:35.114Z,34.07
2023-01-12T08:25:11.119Z,32.73
2023-01-12T08:27:37.674Z,26.53
2023-01-12T08:30:08.311Z,29.90
2023-01-12T08:32:35.622Z,31.30
2023-01-12T08:35:02.321Z,31.80
2023-01-12T08:37:29.232Z,31.20
2023-01-12T08:39:55.779Z,31.10
2023-01-12T08:42:28.053Z,25.10
2023-01-12T08:44:55.715Z,28.50
2023-01-12T08:47:30.300Z,29.27
2023-01-12T08:49:57.432Z,27.17
2023-01-12T08:52:24.029Z,30.00
2023-01-12T08:54:50.520Z,22.23
2023-01-12T08:57:17.628Z,22.30
2023-01-12T08:59:44.105Z,18.40
2023-01-12T09:02:11.753Z,18.43
2023-01-12T09:04:40.440Z,24.03
2023-01-12T09:07:10.226Z,21.60
2023-01-12T09:09:36.750Z,22.07
2023-01-12T09:12:03.417Z,21.20
2023-01-12T09:14:30.031Z,21.30
2023-01-12T09:16:59.610Z,20.57
2023-01-12T09:19:26.175Z,23.30
2023-01-12T09:21:52.724Z,23.03
2023-01-12T09:24:19.381Z,18.67
2023-01-12T09:26:46.098Z,22.23
2023-01-12T09:29:13.093Z,20.17
2023-01-12T09:31:40.409Z,18.53
2023-01-12T09:34:06.983Z,21.10
2023-01-12T09:36:34.512Z,17.37
2023-01-12T09:39:02.199Z,17.10
2023-01-12T09:41:47.402Z,15.97
2023-01-12T09:44:35.887Z,14.07
2023-01-12T09:47:03.660Z,15.33
2023-01-12T09:49:31.650Z,17.73
2023-01-12T09:51:59.533Z,13.67
2023-01-12T09:54:26.060Z,13.60
2023-01-12T09:56:59.542Z,9.70
2023-01-12T09:59:29.459Z,11.57
2023-01-12T10:01:57.225Z,14.20
2023-01-12T10:04:23.780Z,10.47
2023-01-12T10:06:50.323Z,9.30
2023-01-12T10:09:18.394Z,8.93
2023-01-12T10:11:47.881Z,10.37
2023-01-12T10:14:24.865Z,9.93
2023-01-12T10:17:00.526Z,15.43
2023-01-12T10:19:30.230Z,10.53
2023-01-12T10:21:56.880Z,8.90
2023-01-12T10:24:23.843Z,7.37
2023-01-12T10:27:10.592Z,8.93
2023-01-12T10:29:37.061Z,11.60
2023-01-12T10:32:03.602Z,7.20
2023-01-12T10:34:32.781Z,10.23
2023-01-12T10:37:01.141Z,8.50
2023-01-12T10:39:31.512Z,9.57
2023-01-12T10:42:33.210Z,10.83
2023-01-12T10:45:19.174Z,11.40
2023-01-12T10:47:46.431Z,7.70
2023-01-12T10:50:20.767Z,5.73
2023-01-12T10:52:47.383Z,7.97
2023-01-12T10:55:20.795Z,7.93
2023-01-12T10:57:47.891Z,6.03
2023-01-12T11:00:40.705Z,9.23
2023-01-12T11:03:22.596Z,5.77
2023-01-12T11:05:49.209Z,10.30
2023-01-12T11:08:28.433Z,6.37
2023-01-12T11:10:54.967Z,7.93
2023-01-12T11:13:30.579Z,5.77
2023-01-12T11:16:03.433Z,6.87
2023-01-12T11:18:38.690Z,7.07
2023-01-12T11:21:09.303Z,8.67
2023-01-12T11:23:52.801Z,5.03
2023-01-12T11:26:22.411Z,6.33
2023-01-12T11:28:50.071Z,6.73
2023-01-12T11:31:21.504Z,5.10
2023-01-12T11:34:11.263Z,9.20
2023-01-12T11:36:44.850Z,6.33
2023-01-12T11:39:15.089Z,6.50
2023-01-12T11:42:08.060Z,4.73
2023-01-12T11:44:36.596Z,5.50
2023-01-12T11:47:06.637Z,6.50
2023-01-12T11:49:36.708Z,5.00
2023-01-12T11:52:03.180Z,4.53
2023-01-12T11:54:30.440Z,5.87
2023-01-12T11:57:15.727Z,5.57
2023-01-12T11:59:48.446Z,4.53
2023-01-12T12:02:14.966Z,5.37
2023-01-12T12:05:01.084Z,6.37
2023-01-12T12:07:46.928Z,7.80
2023-01-12T12:10:32.189Z,5.73
2023-01-12T12:13:07.952Z,5.23
2023-01-12T12:15:53.032Z,5.70
2023-01-12T12:18:34.797Z,3.87
2023-01-12T12:21:01.402Z,4.20
2023-01-12T12:23:27.864Z,5.17
2023-01-12T12:26:00.616Z,5.30
2023-01-12T12:28:31.557Z,4.97
2023-01-12T12:31:17.631Z,7.43
2023-01-12T12:33:54.036Z,5.97
2023-01-12T12:36:20.672Z,6.37
2023-01-12T12:39:05.971Z,4.10
2023-01-12T12:42:03.806Z,4.30
2023-01-12T12:44:55.268Z,4.30
2023-01-12T12:47:33.766Z,5.87
2023-01-12T12:50:00.424Z,4.93
2023-01-12T12:52:29.984Z,5.87
2023-01-12T12:54:58.361Z,6.33
2023-01-12T12:57:53.281Z,5.47
2023-01-12T13:00:30.372Z,5.93
2023-01-12T13:02:58.837Z,6.13
2023-01-12T13:05:44.451Z,4.73
2023-01-12T13:08:18.422Z,5.77
2023-01-12T13:14:16.634Z,3.70
2023-01-12T13:16:49.676Z,8.17
2023-01-12T13:19:31.941Z,3.97
2023-01-12T13:22:39.107Z,5.80
2023-01-12T13:25:20.923Z,3.53
2023-01-12T13:28:09.655Z,6.63
2023-01-12T13:30:40.435Z,4.27
2023-01-12T13:33:23.319Z,4.90
2023-01-12T13:35:59.275Z,5.63
2023-01-12T13:38:38.647Z,4.67
2023-01-12T13:41:14.389Z,5.27
2023-01-12T13:43:49.696Z,7.73
2023-01-12T13:46:16.831Z,4.93
2023-01-12T13:48:44.747Z,4.97
2023-01-12T13:51:16.707Z,3.23
2023-01-12T13:53:43.177Z,5.33
2023-01-12T13:56:16.788Z,3.73
2023-01-12T13:58:43.390Z,5.87
2023-01-12T14:01:22.997Z,4.83
2023-01-12T14:03:56.128Z,5.60
2023-01-12T14:06:42.997Z,4.90
2023-01-12T14:09:18.576Z,7.30
2023-01-12T14:12:08.446Z,6.03
2023-01-12T14:15:12.654Z,3.57
2023-01-12T14:17:57.765Z,3.40
2023-01-12T14:20:25.453Z,5.27
2023-01-12T14:23:05.742Z,3.37
2023-01-12T14:25:32.229Z,5.17
2023-01-12T14:27:58.712Z,8.37
2023-01-12T14:30:25.685Z,9.40
2023-01-12T14:32:52.218Z,7.53
2023-01-12T14:35:19.746Z,7.17
2023-01-12T14:38:04.415Z,6.33
2023-01-12T14:40:31.603Z,6.57
2023-01-12T14:43:17.358Z,8.07
2023-01-12T14:46:22.773Z,9.07
2023-01-12T14:48:58.557Z,14.57
2023-01-12T14:51:25.128Z,14.20
2023-01-12T14:53:59.642Z,10.70
2023-01-12T14:56:35.444Z,12.10
2023-01-12T14:59:05.552Z,11.33
2023-01-12T15:01:36.509Z,9.83
2023-01-12T15:04:04.226Z,9.70
2023-01-12T15:06:31.289Z,11.30
2023-01-12T15:08:58.770Z,11.00
2023-01-12T15:11:28.934Z,13.93
2023-01-12T15:13:56.989Z,10.70
2023-01-12T15:16:42.038Z,10.03
2023-01-12T15:19:30.226Z,10.13
2023-01-12T15:22:15.413Z,14.10
2023-01-12T15:25:00.612Z,15.03
2023-01-12T15:27:27.232Z,12.47
2023-01-12T15:29:55.012Z,16.03
2023-01-12T15:32:21.594Z,13.87
2023-01-12T15:34:48.147Z,10.57
2023-01-12T15:37:18.503Z,14.37
2023-01-12T15:39:45.269Z,16.07
2023-01-12T15:42:18.435Z,19.97
2023-01-12T15:44:45.038Z,19.47
2023-01-12T15:47:15.053Z,17.43
2023-01-12T15:49:41.825Z,16.67
2023-01-12T15:52:15.113Z,16.90
2023-01-12T15:54:41.785Z,16.87
2023-01-12T15:57:09.233Z,13.10
2023-01-12T15:59:35.748Z,12.47
2023-01-12T16:02:02.302Z,11.97
2023-01-12T16:04:45.569Z,11.17
2023-01-12T16:07:12.151Z,11.37
2023-01-12T16:09:38.776Z,11.63
2023-01-12T16:12:05.448Z,13.93
2023-01-12T16:14:32.010Z,15.03
2023-01-12T16:16:58.546Z,16.47
2023-01-12T16:19:25.364Z,18.07
2023-01-12T16:21:55.267Z,15.73
2023-01-12T16:24:21.950Z,18.20
2023-01-12T16:26:48.511Z,16.90
2023-01-12T16:29:15.580Z,20.63
2023-01-12T16:31:42.372Z,21.20
2023-01-12T16:34:09.474Z,20.97
2023-01-12T16:36:36.022Z,19.93
2023-01-12T16:39:02.867Z,20.33
2023-01-12T16:41:29.415Z,20.97
2023-01-12T16:43:58.014Z,16.10
2023-01-12T16:46:24.506Z,19.67
2023-01-12T16:48:51.956Z,20.47
2023-01-12T16:51:18.732Z,20.63
2023-01-12T16:53:46.563Z,21.60
2023-01-12T16:56:13.983Z,18.60
2023-01-12T16:58:42.641Z,17.37
2023-01-12T17:01:11.400Z,18.80
2023-01-12T17:03:39.404Z,20.60
2023-01-12T17:06:08.394Z,17.37
2023-01-12T17:08:35.498Z,17.43
2023-01-12T17:11:08.834Z,15.27
2023-01-12T17:13:35.525Z,19.53
2023-01-12T17:16:05.057Z,20.53
2023-01-12T17:18:31.807Z,19.17
2023-01-12T17:21:06.010Z,23.93
2023-01-12T17:23:33.044Z,17.03
2023-01-12T17:26:04.035Z,14.07
2023-01-12T17:28:30.662Z,14.40
2023-01-12T17:30:57.948Z,13.00
2023-01-12T17:33:24.712Z,16.33
2023-01-12T17:35:51.404Z,16.43
2023-01-12T17:38:18.278Z,13.17
2023-01-12T17:40:44.767Z,16.50
2023-01-12T17:43:14.988Z,14.40
2023-01-12T17:45:42.851Z,20.10
2023-01-12T17:48:10.430Z,22.57
2023-01-12T17:50:41.264Z,20.50
2023-01-12T17:53:11.031Z,24.90
2023-01-12T17:55:47.468Z,24.73
2023-01-12T17:58:17.517Z,26.60
2023-01-12T18:00:44.624Z,20.43
2023-01-12T18:03:11.376Z,21.27
2023-01-12T18:05:38.509Z,20.33
2023-01-12T18:08:05.332Z,20.70
2023-01-12T18:10:32.170Z,19.03
2023-01-12T18:12:58.768Z,19.97
2023-01-12T18:15:25.313Z,15.37
2023-01-12T18:17:51.850Z,16.53
2023-01-12T18:20:18.423Z,16.40
2023-01-12T18:22:44.917Z,17.77
2023-01-12T18:25:11.458Z,13.77
2023-01-12T18:27:38.246Z,16.20
2023-01-12T18:30:05.034Z,13.83
2023-01-12T18:32:31.743Z,13.50
2023-01-12T18:34:58.779Z,12.77
2023-01-12T18:37:25.294Z,16.47
2023-01-12T18:39:51.961Z,13.43
2023-01-12T18:42:37.400Z,16.17
2023-01-12T18:45:04.931Z,17.77
2023-01-12T18:47:50.134Z,16.73
2023-01-12T18:50:35.426Z,16.03
2023-01-12T18:53:20.543Z,16.40
2023-01-12T18:55:48.332Z,19.63
2023-01-12T18:58:14.971Z,17.40
2023-01-12T19:00:41.676Z,17.33
2023-01-12T19:03:08.794Z,17.43
2023-01-12T19:05:42.698Z,22.40
2023-01-12T19:08:38.511Z,21.83
2023-01-12T19:11:11.374Z,24.13
2023-01-12T19:13:56.756Z,33.10
2023-01-12T19:16:49.771Z,26.13
2023-01-12T19:19:16.267Z,24.20
2023-01-12T19:22:01.589Z,28.37
2023-01-12T19:24:46.765Z,30.67
2023-01-12T19:27:32.228Z,25.80
2023-01-12T19:29:58.995Z,25.37
2023-01-12T19:32:25.662Z,26.03
2023-01-12T19:34:56.534Z,23.13
2023-01-12T19:37:28.900Z,27.47
2023-01-12T19:40:02.960Z,27.73
2023-01-12T19:42:48.010Z,24.93
2023-01-12T19:45:14.961Z,30.60
2023-01-12T19:47:41.565Z,24.07
2023-01-12T19:50:08.530Z,23.30
2023-01-12T19:52:35.941Z,22.90
2023-01-12T19:55:03.291Z,24.77
2023-01-12T19:57:29.761Z,23.30
2023-01-12T19:59:56.275Z,21.87
2023-01-12T20:02:22.935Z,25.60
2023-01-12T20:04:49.493Z,29.87
2023-01-12T20:07:16.033Z,29.17
2023-01-12T20:09:42.681Z,25.00
2023-01-12T20:12:09.250Z,21.37
2023-01-12T20:14:36.093Z,20.90
2023-01-12T20:17:02.613Z,26.40
2023-01-12T20:19:29.152Z,21.77
2023-01-12T20:21:55.633Z,21.97
2023-01-12T20:24:22.514Z,19.03
2023-01-12T20:26:52.413Z,16.53
2023-01-12T20:29:19.581Z,14.13
2023-01-12T20:31:46.503Z,12.27
2023-01-12T20:34:16.161Z,7.30
2023-01-12T20:36:45.991Z,8.63
2023-01-12T20:39:14.516Z,8.53
2023-01-12T20:41:41.285Z,9.27
2023-01-12T20:44:07.801Z,6.40
2023-01-12T20:46:35.184Z,6.97
2023-01-12T20:49:04.735Z,6.33
2023-01-12T20:51:31.416Z,6.10
2023-01-12T20:53:59.970Z,8.97
2023-01-12T20:56:27.209Z,6.40
2023-01-12T20:58:53.701Z,5.90
2023-01-12T21:01:20.360Z,5.40
2023-01-12T21:03:46.967Z,6.47
2023-01-12T21:06:14.767Z,8.53
2023-01-12T21:08:43.556Z,4.73
2023-01-12T21:11:10.582Z,4.70
2023-01-12T21:13:37.236Z,7.67
2023-01-12T21:16:04.558Z,5.57
2023-01-12T21:18:31.199Z,4.70
2023-01-12T21:20:57.790Z,3.37
2023-01-12T21:23:24.746Z,7.70
2023-01-12T21:25:52.031Z,4.43
2023-01-12T21:28:19.059Z,7.07
2023-01-12T21:30:46.015Z,8.07
2023-01-12T21:33:12.930Z,8.20
2023-01-12T21:35:39.541Z,7.60
2023-01-12T21:38:06.186Z,8.57
2023-01-12T21:40:36.036Z,8.17
2023-01-12T21:43:08.567Z,7.33
2023-01-12T21:45:36.169Z,6.70
2023-01-12T21:48:03.447Z,7.33
2023-01-12T21:50:31.142Z,5.23
2023-01-12T21:52:57.641Z,8.40
2023-01-12T21:55:24.546Z,5.90
2023-01-12T21:57:51.089Z,7.20
2023-01-12T22:00:17.845Z,6.13
2023-01-12T22:02:44.481Z,7.40
2023-01-12T22:05:11.210Z,5.13
2023-01-12T22:07:37.731Z,6.77
2023-01-12T22:10:19.456Z,6.27
2023-01-12T22:12:50.214Z,5.93
2023-01-12T22:15:17.127Z,7.67
2023-01-12T22:17:44.072Z,6.43
2023-01-12T22:20:10.940Z,6.90
2023-01-12T22:22:41.240Z,10.00
2023-01-12T22:25:08.269Z,5.27
2023-01-12T22:27:35.064Z,5.30
2023-01-12T22:30:01.631Z,7.03
2023-01-12T22:32:28.541Z,5.90
2023-01-12T22:34:59.031Z,4.87
2023-01-12T22:37:26.625Z,4.53
2023-01-12T22:39:53.199Z,3.67
2023-01-12T22:42:19.922Z,3.87
2023-01-12T22:44:46.404Z,6.37
2023-01-12T22:47:18.190Z,3.50
2023-01-12T22:49:47.005Z,4.63
2023-01-12T22:52:13.486Z,7.43
2023-01-12T22:54:39.956Z,4.50
2023-01-12T22:57:06.897Z,4.73
2023-01-12T22:59:33.461Z,3.53
2023-01-12T23:02:20.029Z,4.80
2023-01-12T23:04:46.576Z,3.63
2023-01-12T23:07:13.139Z,3.40
2023-01-12T23:09:39.661Z,2.90
2023-01-12T23:12:06.265Z,4.50
2023-01-12T23:14:32.913Z,4.30
2023-01-12T23:16:59.427Z,6.83
2023-01-12T23:19:25.979Z,7.47
2023-01-12T23:21:52.478Z,5.20
2023-01-12T23:24:19.092Z,3.80
2023-01-12T23:26:45.607Z,3.33
2023-01-12T23:29:12.148Z,3.67
2023-01-12T23:31:38.730Z,3.43
2023-01-12T23:34:05.289Z,3.63
2023-01-12T23:36:31.867Z,3.83
2023-01-12T23:38:59.270Z,3.20
2023-01-12T23:41:26.749Z,3.47
2023-01-12T23:43:53.615Z,4.37
2023-01-12T23:46:22.103Z,4.03
2023-01-12T23:48:49.234Z,5.20
2023-01-12T23:51:15.881Z,3.27
2023-01-12T23:53:42.392Z,1.47
2023-01-12T23:56:09.757Z,1.47
2023-01-12T23:58:36.459Z,2.33
